Time;durP1;ratioP1;P1;durP2;ratioP2;P2;SDS_P1;SDS_P2;PMS_P1;PMS_P2;Temp;Humidity;BMP_temperature;BMP_pressure;BME280_temperature;BME280_humidity;BME280_pressure;Samples;Min_cycle;Max_cycle;Signal;HPM_P1;HPM_P2
2022/12/13 00:01:13;;;;;;;;;;;;;;;-6.76;83.69;95761.91;5094175;28;20007;-74
2022/12/13 00:03:39;;;;;;;;;;;;;;;-6.76;83.63;95757.66;5093841;28;20321;-74
2022/12/13 00:06:06;;;;;;;;;;;;;;;-6.76;83.87;95765.28;5094267;28;19991;-74
2022/12/13 00:08:31;;;;;;;;;;;;;;;-6.78;84.00;95762.06;5094283;28;19947;-74
2022/12/13 00:10:59;;;;;;;;;;;;;;;-6.80;84.33;95763.13;5076060;28;20002;-74
2022/12/13 00:13:24;;;;;;;;;;;;;;;-6.82;84.31;95758.16;5094369;28;19948;-74
2022/12/13 00:16:01;;;;;;;;;;;;;;;-6.83;84.08;95756.53;5094093;28;20016;-74
2022/12/13 00:18:26;;;;;;;;;;;;;;;-6.86;84.04;95761.91;5082891;28;19942;-74
2022/12/13 00:20:52;;;;;;;;;;;;;;;-6.87;84.27;95754.38;5093864;28;19962;-74
2022/12/13 00:23:19;;;;;;;;;;;;;;;-6.88;84.32;95757.88;5094023;28;19950;-74
2022/12/13 00:25:45;;;;;;;;;;;;;;;-6.90;84.12;95767.38;5094099;28;19944;-74
2022/12/13 00:28:11;;;;;;;;;;;;;;;-6.92;83.75;95756.50;5094048;28;19952;-74
2022/12/13 00:30:37;;;;;;;;;;;;;;;-6.92;83.67;95759.84;5093615;28;19989;-74
2022/12/13 00:33:03;;;;;;;;;;;;;;;-6.98;84.03;95748.41;5093588;28;20498;-74
2022/12/13 00:35:28;;;;;;;;;;;;;;;-6.98;83.89;95750.16;5093933;28;19960;-74
2022/12/13 00:37:54;;;;;;;;;;;;;;;-6.99;84.01;95756.19;5093902;28;20016;-74
2022/12/13 00:40:20;;;;;;;;;;;;;;;-7.03;84.13;95750.53;5093832;28;19985;-75
2022/12/13 00:42:46;;;;;;;;;;;;;;;-7.04;84.00;95745.56;5094145;28;19997;-74
2022/12/13 00:45:12;;;;;;;;;;;;;;;-7.07;84.23;95746.63;5093781;28;20402;-74
2022/12/13 00:47:38;;;;;;;;;;;;;;;-7.06;83.97;95744.88;5093467;28;19947;-74
2022/12/13 00:50:04;;;;;;;;;;;;;;;-7.08;84.35;95739.09;5092320;28;19975;-74
2022/12/13 00:52:30;;;;;;;;;;;;;;;-7.10;84.48;95725.69;5093595;28;20428;-74
2022/12/13 00:54:56;;;;;;;;;;;;;;;-7.09;84.22;95729.88;5092359;28;20321;-74
2022/12/13 00:57:22;;;;;;;;;;;;;;;-7.12;84.41;95723.25;5093741;28;19953;-74
2022/12/13 00:59:48;;;;;;;;;;;;;;;-7.12;84.74;95728.34;5093672;28;20383;-74
2022/12/13 01:02:14;;;;;;;;;;;;;;;-7.14;84.67;95725.13;5093419;28;19958;-74
2022/12/13 01:04:40;;;;;;;;;;;;;;;-7.13;84.44;95720.84;5093574;28;19963;-74
2022/12/13 01:07:06;;;;;;;;;;;;;;;-7.16;84.89;95729.53;5093360;28;20375;-74
2022/12/13 01:09:32;;;;;;;;;;;;;;;-7.15;84.81;95728.63;5093764;28;19954;-74
2022/12/13 01:11:59;;;;;;;;;;;;;;;-7.16;84.98;95725.28;5093413;28;19966;-74
2022/12/13 01:14:25;;;;;;;;;;;;;;;-7.17;84.91;95733.84;5093421;28;19992;-74
2022/12/13 01:16:54;;;;;;;;;;;;;;;-7.19;85.25;95724.69;5083753;28;19959;-74
2022/12/13 01:19:24;;;;;;;;;;;;;;;-7.19;85.14;95727.25;5093397;28;19946;-74
2022/12/13 01:21:53;;;;;;;;;;;;;;;-7.20;84.70;95720.53;5093745;28;19947;-74
2022/12/13 01:24:21;;;;;;;;;;;;;;;-7.20;85.12;95723.06;5092072;28;19974;-74
2022/12/13 01:26:47;;;;;;;;;;;;;;;-7.21;84.76;95722.28;5093402;28;19961;-74
2022/12/13 01:29:13;;;;;;;;;;;;;;;-7.21;84.67;95721.47;5093266;28;19993;-74
2022/12/13 01:31:40;;;;;;;;;;;;;;;-7.21;85.02;95718.94;5084331;28;19963;-74
2022/12/13 01:34:09;;;;;;;;;;;;;;;-7.23;85.07;95719.03;5093217;28;19954;-74
2022/12/13 01:36:35;;;;;;;;;;;;;;;-7.23;85.37;95719.03;5093394;28;19995;-74
2022/12/13 01:39:02;;;;;;;;;;;;;;;-7.22;85.01;95707.94;5093168;28;19943;-74
2022/12/13 01:41:29;;;;;;;;;;;;;;;-7.22;84.83;95702.03;5093410;28;20348;-74
2022/12/13 01:44:02;;;;;;;;;;;;;;;-7.24;84.66;95706.47;5094770;28;19951;-74
2022/12/13 01:46:28;;;;;;;;;;;;;;;-7.26;84.82;95709.13;5097291;28;19951;-74
2022/12/13 01:49:00;;;;;;;;;;;;;;;-7.27;84.93;95709.25;5078397;28;19954;-74
2022/12/13 01:51:45;;;;;;;;;;;;;;;-7.29;84.88;95700.91;5097021;28;19966;-74
2022/12/13 01:54:13;;;;;;;;;;;;;;;-7.31;84.87;95697.69;5096825;28;20314;-75
2022/12/13 01:56:42;;;;;;;;;;;;;;;-7.31;85.07;95695.94;5078748;28;19945;-74
2022/12/13 01:59:09;;;;;;;;;;;;;;;-7.33;85.15;95690.16;5097167;28;19955;-74
2022/12/13 02:01:35;;;;;;;;;;;;;;;-7.35;85.24;95692.84;5096521;28;19951;-74
2022/12/13 02:04:01;;;;;;;;;;;;;;;-7.37;85.24;95691.34;5096774;28;19949;-74
2022/12/13 02:06:30;;;;;;;;;;;;;;;-7.39;85.15;95694.03;5096535;28;19990;-74
2022/12/13 02:08:56;;;;;;;;;;;;;;;-7.40;85.13;95689.06;5096476;28;19955;-74
2022/12/13 02:11:23;;;;;;;;;;;;;;;-7.44;85.28;95690.25;5096282;28;19976;-74
2022/12/13 02:13:49;;;;;;;;;;;;;;;-7.46;85.32;95682.72;5095396;28;19959;-74
2022/12/13 02:16:27;;;;;;;;;;;;;;;-7.48;85.35;95686.34;5094486;28;20413;-74
2022/12/13 02:18:55;;;;;;;;;;;;;;;-7.50;86.44;95683.91;5095339;28;19945;-74
2022/12/13 02:21:27;;;;;;;;;;;;;;;-7.49;86.81;95687.28;5096161;28;19956;-74
2022/12/13 02:24:05;;;;;;;;;;;;;;;-7.49;86.96;95684.72;5095077;28;19946;-74
2022/12/13 02:26:41;;;;;;;;;;;;;;;-7.50;87.41;95678.81;5096123;28;19953;-74
2022/12/13 02:29:34;;;;;;;;;;;;;;;-7.48;87.53;95682.03;5096411;28;19957;-74
2022/12/13 02:32:06;;;;;;;;;;;;;;;-7.47;87.65;95675.22;5088943;28;20016;-74
2022/12/13 02:34:38;;;;;;;;;;;;;;;-7.46;87.68;95670.00;5095998;28;19953;-75
2022/12/13 02:37:22;;;;;;;;;;;;;;;-7.46;87.42;95674.28;5095825;28;19963;-74
2022/12/13 02:40:07;;;;;;;;;;;;;;;-7.50;87.82;95668.63;5095996;28;19950;-74
2022/12/13 02:42:38;;;;;;;;;;;;;;;-7.49;87.94;95674.56;5094376;28;19940;-74
2022/12/13 02:45:07;;;;;;;;;;;;;;;-7.51;87.81;95674.66;5095955;28;19959;-74
2022/12/13 02:47:34;;;;;;;;;;;;;;;-7.51;87.87;95669.56;5094484;28;19951;-74
2022/12/13 02:50:03;;;;;;;;;;;;;;;-7.51;87.74;95661.94;5096031;28;19951;-73
2022/12/13 02:52:30;;;;;;;;;;;;;;;-7.53;87.72;95671.44;5095586;28;19939;-75
2022/12/13 02:54:57;;;;;;;;;;;;;;;-7.51;88.01;95674.66;5095390;28;19961;-75
2022/12/13 02:57:33;;;;;;;;;;;;;;;-7.51;88.43;95666.22;5096191;28;20402;-74
2022/12/13 03:00:02;;;;;;;;;;;;;;;-7.52;88.56;95667.94;5095745;28;20004;-75
2022/12/13 03:02:27;;;;;;;;;;;;;;;-7.52;88.61;95660.31;5095428;28;19969;-75
2022/12/13 03:07:45;;;;;;;;;;;;;;;-7.54;88.70;95651.97;5084100;28;19952;-75
2022/12/13 03:10:15;;;;;;;;;;;;;;;-7.57;88.88;95647.97;5095284;28;19952;-75
2022/12/13 03:15:36;;;;;;;;;;;;;;;-7.56;89.08;95641.94;5087089;28;19946;-75
2022/12/13 03:18:14;;;;;;;;;;;;;;;-7.57;88.74;95647.16;5095429;28;19950;-75
2022/12/13 03:20:47;;;;;;;;;;;;;;;-7.61;88.73;95641.50;5095048;28;19951;-75
2022/12/13 03:23:14;;;;;;;;;;;;;;;-7.65;89.39;95642.69;5095478;28;19951;-74
2022/12/13 03:25:40;;;;;;;;;;;;;;;-7.65;89.71;95640.13;5093915;28;20333;-75
2022/12/13 03:28:06;;;;;;;;;;;;;;;-7.63;89.32;95633.19;5095077;28;19945;-75
2022/12/13 03:30:32;;;;;;;;;;;;;;;-7.60;89.93;95650.78;5094971;28;20007;-74
2022/12/13 03:32:58;;;;;;;;;;;;;;;-7.60;89.85;95643.13;5093531;28;19945;-74
2022/12/13 03:35:24;;;;;;;;;;;;;;;-7.60;90.17;95640.59;5094695;28;19957;-74
2022/12/13 03:37:50;;;;;;;;;;;;;;;-7.62;90.10;95639.06;5093645;28;19969;-74
2022/12/13 03:40:17;;;;;;;;;;;;;;;-7.67;89.87;95639.44;5094773;28;19951;-74
2022/12/13 03:42:43;;;;;;;;;;;;;;;-7.72;90.14;95638.25;5093527;28;19963;-74
2022/12/13 03:45:09;;;;;;;;;;;;;;;-7.75;91.17;95634.19;5094737;28;20049;-75
2022/12/13 03:47:35;;;;;;;;;;;;;;;-7.77;90.70;95631.78;5094404;28;20408;-75
2022/12/13 03:50:01;;;;;;;;;;;;;;;-7.75;91.08;95629.09;5094544;28;19983;-75
2022/12/13 03:52:27;;;;;;;;;;;;;;;-7.74;90.97;95628.19;5094818;28;20382;-74
2022/12/13 03:54:53;;;;;;;;;;;;;;;-7.76;90.82;95623.19;5093299;28;19969;-75
2022/12/13 03:57:18;;;;;;;;;;;;;;;-7.76;90.69;95623.19;5093323;28;20472;-75
2022/12/13 03:59:44;;;;;;;;;;;;;;;-7.77;90.85;95625.88;5094438;28;19948;-74
2022/12/13 04:02:10;;;;;;;;;;;;;;;-7.76;90.86;95625.75;5093021;28;20009;-74
2022/12/13 04:04:36;;;;;;;;;;;;;;;-7.76;91.10;95623.19;5093088;28;19952;-74
2022/12/13 04:07:02;;;;;;;;;;;;;;;-7.78;90.72;95625.06;5093849;28;19947;-74
2022/12/13 04:09:28;;;;;;;;;;;;;;;-7.78;90.97;95624.25;5094118;28;20335;-75
2022/12/13 04:14:38;;;;;;;;;;;;;;;-7.73;90.89;95627.22;5094245;28;19956;-74
2022/12/13 04:17:04;;;;;;;;;;;;;;;-7.72;90.97;95626.31;5094129;28;20020;-74
2022/12/13 04:19:30;;;;;;;;;;;;;;;-7.68;90.93;95631.97;5094224;28;20006;-74
2022/12/13 04:21:56;;;;;;;;;;;;;;;-7.66;90.59;95627.56;5094013;28;19966;-75
2022/12/13 04:24:22;;;;;;;;;;;;;;;-7.64;90.46;95636.69;5094101;28;20464;-75
2022/12/13 04:26:48;;;;;;;;;;;;;;;-7.62;90.22;95631.44;5094426;28;19950;-73
2022/12/13 04:29:14;;;;;;;;;;;;;;;-7.60;90.03;95629.56;5093951;28;19959;-74
2022/12/13 04:31:40;;;;;;;;;;;;;;;-7.58;89.89;95623.44;5075884;28;20442;-74
2022/12/13 04:34:05;;;;;;;;;;;;;;;-7.55;89.67;95623.19;5094211;28;19988;-75
2022/12/13 04:36:31;;;;;;;;;;;;;;;-7.55;89.46;95620.63;5093837;28;20053;-74
2022/12/13 04:38:57;;;;;;;;;;;;;;;-7.55;89.18;95618.09;5093661;28;19960;-74
2022/12/13 04:41:25;;;;;;;;;;;;;;;-7.51;89.51;95630.59;5091781;28;20353;-74
2022/12/13 04:43:52;;;;;;;;;;;;;;;-7.51;89.28;95617.84;5093953;28;19957;-74
2022/12/13 04:46:18;;;;;;;;;;;;;;;-7.49;89.62;95621.06;5093865;28;19953;-74
2022/12/13 04:48:44;;;;;;;;;;;;;;;-7.46;89.82;95618.25;5093670;28;19947;-74
2022/12/13 04:51:10;;;;;;;;;;;;;;;-7.46;89.55;95613.16;5092634;28;19948;-74
2022/12/13 04:53:36;;;;;;;;;;;;;;;-7.45;89.60;95617.34;5093760;28;20031;-74
2022/12/13 04:56:03;;;;;;;;;;;;;;;-7.45;89.10;95609.72;5092288;28;20271;-74
2022/12/13 04:58:29;;;;;;;;;;;;;;;-7.48;89.29;95605.66;5093907;28;19982;-74
2022/12/13 05:00:54;;;;;;;;;;;;;;;-7.49;89.06;95609.16;5093506;28;20465;-74
2022/12/13 05:03:21;;;;;;;;;;;;;;;-7.53;89.44;95612.06;5093511;28;19975;-74
2022/12/13 05:05:46;;;;;;;;;;;;;;;-7.59;89.87;95610.84;5093462;28;20431;-76
2022/12/13 05:08:12;;;;;;;;;;;;;;;-7.61;89.77;95602.50;5092372;28;19952;-74
2022/12/13 05:10:38;;;;;;;;;;;;;;;-7.65;89.83;95607.03;5093405;28;20006;-74
2022/12/13 05:13:04;;;;;;;;;;;;;;;-7.67;89.92;95601.28;5075766;28;19993;-74
2022/12/13 05:15:31;;;;;;;;;;;;;;;-7.70;90.56;95601.53;5093513;28;19960;-74
2022/12/13 05:18:01;;;;;;;;;;;;;;;-7.71;90.14;95602.47;5095438;28;19943;-74
2022/12/13 05:20:27;;;;;;;;;;;;;;;-7.76;90.20;95595.19;5097695;28;19949;-74
2022/12/13 05:22:56;;;;;;;;;;;;;;;-7.78;90.47;95601.34;5097439;28;20423;-74
2022/12/13 05:25:23;;;;;;;;;;;;;;;-7.81;90.74;95594.78;5097260;28;19951;-74
2022/12/13 05:27:49;;;;;;;;;;;;;;;-7.83;90.72;95601.75;5095937;28;19955;-74
2022/12/13 05:30:15;;;;;;;;;;;;;;;-7.85;90.96;95600.22;5097254;28;19947;-74
2022/12/13 05:32:41;;;;;;;;;;;;;;;-7.86;90.78;95599.44;5096133;28;20062;-74
2022/12/13 05:35:07;;;;;;;;;;;;;;;-7.88;90.77;95595.41;5095863;28;19953;-74
2022/12/13 05:37:33;;;;;;;;;;;;;;;-7.92;90.50;95592.28;5097423;28;19974;-74
2022/12/13 05:39:59;;;;;;;;;;;;;;;-7.92;91.14;95599.13;5097163;28;19961;-74
2022/12/13 05:42:25;;;;;;;;;;;;;;;-7.93;91.20;95602.63;5097355;28;20377;-74
2022/12/13 05:44:51;;;;;;;;;;;;;;;-7.93;90.76;95594.97;5095809;28;19956;-74
2022/12/13 05:47:17;;;;;;;;;;;;;;;-7.95;91.02;95595.09;5097013;28;19950;-74
2022/12/13 05:49:43;;;;;;;;;;;;;;;-7.96;91.56;95591.75;5096823;28;19942;-74
2022/12/13 05:52:19;;;;;;;;;;;;;;;-7.96;91.03;95594.31;5095698;28;19958;-74
2022/12/13 05:54:45;;;;;;;;;;;;;;;-7.97;90.88;95592.66;5085269;28;19957;-74
2022/12/13 05:57:11;;;;;;;;;;;;;;;-7.97;90.94;95597.75;5095532;28;19962;-74
2022/12/13 05:59:37;;;;;;;;;;;;;;;-7.99;91.07;95581.00;5096863;28;20494;-74
2022/12/13 06:02:03;;;;;;;;;;;;;;;-8.00;91.30;95587.03;5096431;28;20002;-74
2022/12/13 06:04:28;;;;;;;;;;;;;;;-8.01;91.14;95587.97;5096923;28;19957;-74
2022/12/13 06:06:54;;;;;;;;;;;;;;;-8.04;90.16;95581.41;5096593;28;20065;-74
2022/12/13 06:09:21;;;;;;;;;;;;;;;-8.02;91.27;95587.16;5096958;28;20002;-74
2022/12/13 06:11:47;;;;;;;;;;;;;;;-8.04;90.80;95589.03;5096722;28;19945;-74
2022/12/13 06:14:14;;;;;;;;;;;;;;;-8.06;90.73;95577.34;5096384;28;19950;-74
2022/12/13 06:16:39;;;;;;;;;;;;;;;-8.10;91.50;95589.53;5096289;28;19943;-74
2022/12/13 06:19:06;;;;;;;;;;;;;;;-8.14;91.16;95582.25;5096394;28;20432;-74
2022/12/13 06:21:33;;;;;;;;;;;;;;;-8.19;91.34;95592.78;5096295;28;19945;-74
2022/12/13 06:23:59;;;;;;;;;;;;;;;-8.18;91.47;95590.13;5095252;28;19977;-76
2022/12/13 06:26:25;;;;;;;;;;;;;;;-8.20;91.40;95586.91;5094798;28;19959;-74
2022/12/13 06:28:51;;;;;;;;;;;;;;;-8.19;91.46;95590.25;5094343;28;19956;-74
2022/12/13 06:31:17;;;;;;;;;;;;;;;-8.19;91.00;95587.69;5095958;28;19954;-74
2022/12/13 06:33:43;;;;;;;;;;;;;;;-8.19;91.11;95588.53;5096194;28;20478;-74
2022/12/13 06:36:09;;;;;;;;;;;;;;;-8.18;90.97;95592.66;5095699;28;19954;-74
2022/12/13 06:38:35;;;;;;;;;;;;;;;-8.19;91.10;95583.44;5095446;28;19964;-74
2022/12/13 06:41:08;;;;;;;;;;;;;;;-8.17;91.13;95591.75;5096451;28;20036;-74
2022/12/13 06:43:34;;;;;;;;;;;;;;;-8.16;90.83;95592.56;5095724;28;19969;-74
2022/12/13 06:46:04;;;;;;;;;;;;;;;-8.18;90.39;95596.97;5095931;28;19945;-74
2022/12/13 06:48:30;;;;;;;;;;;;;;;-8.20;90.77;95601.34;5095792;28;19960;-74
2022/12/13 06:51:00;;;;;;;;;;;;;;;-8.17;90.50;95599.38;5095659;28;19968;-74
2022/12/13 06:53:26;;;;;;;;;;;;;;;-8.18;90.44;95602.84;5095889;28;20316;-74
2022/12/13 06:55:51;;;;;;;;;;;;;;;-8.18;89.93;95602.03;5095890;28;19950;-74
2022/12/13 06:58:18;;;;;;;;;;;;;;;-8.18;89.79;95604.59;5095828;28;20462;-75
2022/12/13 07:00:44;;;;;;;;;;;;;;;-8.19;89.87;95600.41;5095422;28;20338;-74
2022/12/13 07:03:10;;;;;;;;;;;;;;;-8.18;89.79;95599.50;5095946;28;19993;-74
2022/12/13 07:05:37;;;;;;;;;;;;;;;-8.21;89.35;95599.72;5095528;28;19960;-74
2022/12/13 07:08:03;;;;;;;;;;;;;;;-8.27;89.85;95608.69;5095413;28;19950;-75
2022/12/13 07:10:29;;;;;;;;;;;;;;;-8.30;90.03;95608.09;5095141;28;20306;-74
2022/12/13 07:12:55;;;;;;;;;;;;;;;-8.34;90.28;95607.53;5095252;28;19944;-74
2022/12/13 07:15:21;;;;;;;;;;;;;;;-8.37;90.59;95612.88;5094259;28;20013;-74
2022/12/13 07:17:50;;;;;;;;;;;;;;;-8.36;90.91;95604.31;5094743;28;19990;-74
2022/12/13 07:20:17;;;;;;;;;;;;;;;-8.34;91.06;95619.44;5095146;28;20405;-74
2022/12/13 07:22:43;;;;;;;;;;;;;;;-8.37;91.30;95626.38;5095195;28;19983;-74
2022/12/13 07:25:09;;;;;;;;;;;;;;;-8.34;91.47;95622.78;5095345;28;19964;-74
2022/12/13 07:27:35;;;;;;;;;;;;;;;-8.30;91.48;95618.28;5094867;28;19946;-74
2022/12/13 07:30:02;;;;;;;;;;;;;;;-8.28;91.57;95621.50;5095080;28;19954;-74
2022/12/13 07:32:28;;;;;;;;;;;;;;;-8.23;91.63;95621.94;5093861;28;19953;-74
2022/12/13 07:34:54;;;;;;;;;;;;;;;-8.22;91.39;95621.81;5094786;28;19954;-74
2022/12/13 07:37:20;;;;;;;;;;;;;;;-8.16;91.45;95623.88;5094818;28;19976;-74
2022/12/13 07:39:46;;;;;;;;;;;;;;;-8.09;91.75;95626.72;5094973;28;19963;-74
2022/12/13 07:42:12;;;;;;;;;;;;;;;-8.01;91.13;95639.66;5093524;28;20434;-74
2022/12/13 07:44:38;;;;;;;;;;;;;;;-7.94;91.00;95634.06;5094858;28;20396;-74
2022/12/13 07:47:03;;;;;;;;;;;;;;;-7.90;90.84;95635.44;5093606;28;19982;-74
2022/12/13 07:49:29;;;;;;;;;;;;;;;-7.84;90.88;95640.81;5094975;28;19987;-75
2022/12/13 07:51:56;;;;;;;;;;;;;;;-7.75;90.47;95639.28;5094567;28;20361;-74
2022/12/13 07:54:21;;;;;;;;;;;;;;;-7.66;90.16;95637.75;5094611;28;19947;-74
2022/12/13 07:56:47;;;;;;;;;;;;;;;-7.56;89.88;95638.56;5094756;28;20047;-74
2022/12/13 07:59:13;;;;;;;;;;;;;;;-7.47;89.86;95639.59;5093997;28;19996;-74
2022/12/13 08:01:39;;;;;;;;;;;;;;;-7.37;90.02;95635.31;5094362;28;19962;-74
2022/12/13 08:04:05;;;;;;;;;;;;;;;-7.27;89.22;95630.28;5094003;28;20006;-74
2022/12/13 08:06:35;;;;;;;;;;;;;;;-7.19;88.89;95626.16;5093041;28;19960;-74
2022/12/13 08:09:01;;;;;;;;;;;;;;;-7.11;89.02;95625.50;5094441;28;19944;-74
2022/12/13 08:11:27;;;;;;;;;;;;;;;-7.04;88.76;95628.34;5092870;28;20001;-74
2022/12/13 08:13:53;;;;;;;;;;;;;;;-6.96;88.78;95631.06;5094198;28;19949;-74
2022/12/13 08:16:19;;;;;;;;;;;;;;;-6.89;88.67;95637.25;5094254;28;19987;-74
2022/12/13 08:18:46;;;;;;;;;;;;;;;-6.84;88.48;95632.56;5094548;28;19963;-74
2022/12/13 08:21:12;;;;;;;;;;;;;;;-6.81;88.39;95632.28;5094397;28;19954;-74
2022/12/13 08:23:38;;;;;;;;;;;;;;;-6.78;88.78;95629.50;5093930;28;19964;-74
2022/12/13 08:26:05;;;;;;;;;;;;;;;-6.72;88.58;95627.34;5092822;28;19997;-74
2022/12/13 08:28:31;;;;;;;;;;;;;;;-6.67;88.39;95628.59;5094495;28;20018;-74
2022/12/13 08:31:04;;;;;;;;;;;;;;;-6.63;88.30;95632.47;5093898;28;19957;-74
2022/12/13 08:33:31;;;;;;;;;;;;;;;-6.57;88.38;95636.25;5093690;28;19953;-74
2022/12/13 08:35:57;;;;;;;;;;;;;;;-6.55;87.85;95636.91;5093410;28;19942;-75
2022/12/13 08:38:23;;;;;;;;;;;;;;;-6.53;87.85;95637.59;5093997;28;19968;-74
2022/12/13 08:40:49;;;;;;;;;;;;;;;-6.51;87.83;95637.47;5093738;28;19993;-74
2022/12/13 08:43:15;;;;;;;;;;;;;;;-6.52;87.37;95641.75;5093868;28;20001;-74
2022/12/13 08:45:41;;;;;;;;;;;;;;;-6.53;87.20;95629.94;5093586;28;20388;-74
2022/12/13 08:48:07;;;;;;;;;;;;;;;-6.51;87.39;95630.59;5093937;28;19960;-74
2022/12/13 08:50:33;;;;;;;;;;;;;;;-6.49;87.21;95625.38;5093650;28;20011;-74
2022/12/13 08:52:59;;;;;;;;;;;;;;;-6.47;87.37;95631.16;5095675;28;19951;-74
2022/12/13 08:55:25;;;;;;;;;;;;;;;-6.47;87.35;95634.50;5097841;28;19951;-74
2022/12/13 08:57:51;;;;;;;;;;;;;;;-6.42;86.89;95636.69;5097947;28;20008;-74
2022/12/13 09:00:18;;;;;;;;;;;;;;;-6.41;86.55;95640.81;5096551;28;19977;-74
2022/12/13 09:02:44;;;;;;;;;;;;;;;-6.38;86.39;95638.03;5098054;28;19958;-74
2022/12/13 09:05:11;;;;;;;;;;;;;;;-6.37;86.52;95621.78;5098141;28;19969;-74
2022/12/13 09:07:40;;;;;;;;;;;;;;;-6.33;86.49;95628.22;5097858;28;19943;-74
2022/12/13 09:10:07;;;;;;;;;;;;;;;-6.33;86.20;95630.75;5098183;28;19953;-74
2022/12/13 09:12:33;;;;;;;;;;;;;;;-6.33;86.51;95631.56;5097857;28;20312;-74
2022/12/13 09:14:59;;;;;;;;;;;;;;;-6.28;86.29;95627.81;5096845;28;19959;-74
2022/12/13 09:17:25;;;;;;;;;;;;;;;-6.24;86.41;95629.16;5097672;28;19988;-74
2022/12/13 09:19:52;;;;;;;;;;;;;;;-6.19;86.07;95627.81;5097409;28;20039;-74
2022/12/13 09:22:20;;;;;;;;;;;;;;;-6.16;86.16;95630.09;5097465;28;19949;-74
2022/12/13 09:24:46;;;;;;;;;;;;;;;-6.13;85.33;95623.94;5096242;28;20308;-74
2022/12/13 09:27:12;;;;;;;;;;;;;;;-6.08;86.31;95643.94;5097352;28;19949;-74
2022/12/13 09:29:38;;;;;;;;;;;;;;;-6.02;86.13;95645.97;5098042;28;19993;-74
2022/12/13 09:32:04;;;;;;;;;;;;;;;-5.97;86.40;95642.03;5082742;28;19944;-74
2022/12/13 09:34:31;;;;;;;;;;;;;;;-5.93;85.95;95640.00;5096433;28;19943;-73
2022/12/13 09:36:57;;;;;;;;;;;;;;;-5.88;86.10;95642.13;5096696;28;19985;-74
2022/12/13 09:39:23;;;;;;;;;;;;;;;-5.82;85.95;95639.84;5095583;28;19960;-74
2022/12/13 09:41:51;;;;;;;;;;;;;;;-5.74;85.41;95634.88;5097375;28;20005;-74
2022/12/13 09:44:23;;;;;;;;;;;;;;;-5.64;85.49;95634.06;5096908;28;19972;-74
2022/12/13 09:46:49;;;;;;;;;;;;;;;-5.58;85.32;95633.50;5096832;28;19952;-74
2022/12/13 09:49:20;;;;;;;;;;;;;;;-5.44;86.04;95639.91;5096629;28;19954;-74
2022/12/13 09:51:48;;;;;;;;;;;;;;;-5.30;84.84;95631.81;5097303;28;19950;-74
2022/12/13 09:54:18;;;;;;;;;;;;;;;-5.19;84.42;95628.25;5096945;28;19950;-74
2022/12/13 09:56:49;;;;;;;;;;;;;;;-5.06;85.03;95627.94;5095587;28;19954;-74
2022/12/13 09:59:28;;;;;;;;;;;;;;;-5.00;83.91;95624.81;5096916;28;19958;-74
2022/12/13 10:01:55;;;;;;;;;;;;;;;-4.92;83.89;95614.69;5096813;28;19945;-74
2022/12/13 10:04:21;;;;;;;;;;;;;;;-4.87;82.40;95604.88;5095270;28;19965;-74
2022/12/13 10:06:51;;;;;;;;;;;;;;;-4.84;83.56;95612.22;5096683;28;19945;-74
2022/12/13 10:09:18;;;;;;;;;;;;;;;-4.81;83.38;95601.69;5096676;28;19961;-74
2022/12/13 10:11:51;;;;;;;;;;;;;;;-4.75;82.77;95603.69;5096679;28;19954;-74
2022/12/13 10:14:24;;;;;;;;;;;;;;;-4.70;82.92;95605.84;5096430;28;19940;-74
2022/12/13 10:16:53;;;;;;;;;;;;;;;-4.69;82.10;95600.56;5096046;28;19953;-74
2022/12/13 10:19:23;;;;;;;;;;;;;;;-4.63;83.23;95611.97;5096263;28;19951;-74
2022/12/13 10:21:50;;;;;;;;;;;;;;;-4.56;82.81;95597.66;5096224;28;19944;-74
2022/12/13 10:24:16;;;;;;;;;;;;;;;-4.44;83.16;95607.69;5096333;28;19994;-74
2022/12/13 10:26:42;;;;;;;;;;;;;;;-4.34;82.57;95595.63;5096215;28;19950;-74
2022/12/13 10:29:09;;;;;;;;;;;;;;;-4.23;83.29;95590.28;5095473;28;20367;-74
2022/12/13 10:31:39;;;;;;;;;;;;;;;-4.15;82.00;95577.56;5096288;28;19952;-74
2022/12/13 10:34:14;;;;;;;;;;;;;;;-4.10;82.41;95593.25;5095013;28;19962;-74
2022/12/13 10:36:42;;;;;;;;;;;;;;;-4.02;82.31;95597.66;5096099;28;19979;-74
2022/12/13 10:39:15;;;;;;;;;;;;;;;-3.94;82.15;95576.44;5095858;28;19949;-74
2022/12/13 10:41:41;;;;;;;;;;;;;;;-3.85;81.14;95572.16;5096044;28;19958;-74
2022/12/13 10:44:17;;;;;;;;;;;;;;;-3.78;80.01;95558.63;5096048;28;19976;-74
2022/12/13 10:47:03;;;;;;;;;;;;;;;-3.70;81.28;95571.44;5095973;28;19939;-73
2022/12/13 10:49:47;;;;;;;;;;;;;;;-3.57;81.53;95571.06;5096035;28;19954;-74
2022/12/13 10:52:22;;;;;;;;;;;;;;;-3.44;81.22;95568.09;5078060;28;19956;-74
2022/12/13 10:54:49;;;;;;;;;;;;;;;-3.35;79.96;95559.47;5094525;28;19948;-74
2022/12/13 10:57:16;;;;;;;;;;;;;;;-3.23;80.69;95561.75;5094530;28;19963;-74
2022/12/13 10:59:43;;;;;;;;;;;;;;;-3.14;80.90;95561.66;5095759;28;19955;-73
2022/12/13 11:02:27;;;;;;;;;;;;;;;-3.07;81.03;95557.53;5095337;28;19947;-74
2022/12/13 11:04:53;;;;;;;;;;;;;;;-2.96;81.04;95555.59;5094798;28;19964;-74
2022/12/13 11:07:30;;;;;;;;;;;;;;;-2.89;77.91;95528.38;5097269;28;19947;-74
2022/12/13 11:10:35;;;;;;;;;;;;;;;-2.90;75.91;95512.19;5095756;28;19950;-74
2022/12/13 11:13:02;;;;;;;;;;;;;;;-2.91;78.71;95543.94;5073218;28;19947;-74
2022/12/13 11:15:29;;;;;;;;;;;;;;;-2.92;76.70;95519.25;5072811;28;19952;-73
2022/12/13 11:17:58;;;;;;;;;;;;;;;-2.87;78.36;95521.34;5083312;28;19955;-73
2022/12/13 11:20:26;;;;;;;;;;;;;;;-2.85;77.99;95519.44;5095134;28;19942;-73
2022/12/13 11:23:04;;;;;;;;;;;;;;;-2.82;78.32;95520.88;5095093;28;20421;-75
2022/12/13 11:25:36;;;;;;;;;;;;;;;-2.78;78.19;95522.94;5094831;28;19950;-73
2022/12/13 11:28:18;;;;;;;;;;;;;;;-2.78;78.67;95519.59;5093610;28;19948;-73
2022/12/13 11:31:02;;;;;;;;;;;;;;;-2.76;79.17;95526.16;5095407;28;19948;-73
2022/12/13 11:33:46;;;;;;;;;;;;;;;-2.76;79.34;95513.34;5079834;28;19941;-73
2022/12/13 11:36:12;;;;;;;;;;;;;;;-2.78;79.03;95489.59;5094893;28;19985;-71
2022/12/13 11:38:44;;;;;;;;;;;;;;;-2.76;78.95;95508.22;5095201;28;19949;-74
2022/12/13 11:41:20;;;;;;;;;;;;;;;-2.74;79.17;95503.72;5082461;28;19948;-73
2022/12/13 11:43:50;;;;;;;;;;;;;;;-2.76;79.43;95504.84;5094541;28;19957;-74
2022/12/13 11:46:19;;;;;;;;;;;;;;;-2.76;79.62;95509.97;5093453;28;20342;-73
2022/12/13 11:48:47;;;;;;;;;;;;;;;-2.73;79.89;95520.72;5094517;28;19952;-73
2022/12/13 11:51:17;;;;;;;;;;;;;;;-2.72;79.06;95513.84;5094572;28;19952;-74
2022/12/13 11:54:01;;;;;;;;;;;;;;;-2.68;79.21;95517.69;5094569;28;20395;-73
2022/12/13 11:56:31;;;;;;;;;;;;;;;-2.66;78.68;95506.28;5085637;28;19958;-73
2022/12/13 11:59:09;;;;;;;;;;;;;;;-2.62;79.34;95514.50;5094312;28;19955;-73
2022/12/13 12:01:40;;;;;;;;;;;;;;;-2.57;78.83;95501.19;5094600;28;20393;-73
2022/12/13 12:04:06;;;;;;;;;;;;;;;-2.55;79.87;95507.75;5094478;28;19954;-73
2022/12/13 12:06:37;;;;;;;;;;;;;;;-2.52;79.16;95499.75;5093693;28;19986;-73
2022/12/13 12:09:05;;;;;;;;;;;;;;;-2.53;78.58;95497.31;5094317;28;19955;-73
2022/12/13 12:11:33;;;;;;;;;;;;;;;-2.53;77.76;95487.06;5094572;28;19958;-73
2022/12/13 12:14:10;;;;;;;;;;;;;;;-2.54;77.86;95483.69;5094119;28;19949;-73
2022/12/13 12:16:42;;;;;;;;;;;;;;;-2.55;78.17;95492.34;5094565;28;19949;-73
2022/12/13 12:19:19;;;;;;;;;;;;;;;-2.53;78.56;95490.44;5094105;28;19943;-74
2022/12/13 12:21:45;;;;;;;;;;;;;;;-2.47;79.21;95501.81;5094493;28;19962;-73
2022/12/13 12:24:30;;;;;;;;;;;;;;;-2.42;78.31;95485.94;5094105;28;19971;-73
2022/12/13 12:26:55;;;;;;;;;;;;;;;-2.41;78.70;95492.69;5077127;28;19959;-73
2022/12/13 12:29:35;;;;;;;;;;;;;;;-2.40;78.02;95477.09;5094173;28;20359;-73
2022/12/13 12:32:04;;;;;;;;;;;;;;;-2.37;77.83;95486.25;5093987;28;19946;-73
2022/12/13 12:34:42;;;;;;;;;;;;;;;-2.38;77.52;95475.19;5094295;28;19958;-73
2022/12/13 12:37:23;;;;;;;;;;;;;;;-2.40;77.93;95473.75;5114947;28;19963;-73
2022/12/13 12:39:57;;;;;;;;;;;;;;;-2.42;77.73;95466.19;5093903;28;19945;-73
2022/12/13 12:42:40;;;;;;;;;;;;;;;-2.43;78.85;95477.44;5093853;28;19961;-73
2022/12/13 12:45:17;;;;;;;;;;;;;;;-2.38;77.61;95458.97;5093146;28;19945;-73
2022/12/13 12:48:02;;;;;;;;;;;;;;;-2.34;77.07;95453.34;5093675;28;20396;-73
2022/12/13 12:50:46;;;;;;;;;;;;;;;-2.31;73.75;95421.41;5093528;28;19949;-73
2022/12/13 12:53:25;;;;;;;;;;;;;;;-2.39;71.83;95399.13;5093986;28;20401;-73
2022/12/13 12:55:52;;;;;;;;;;;;;;;-2.48;73.84;95408.63;5093573;28;20297;-73
2022/12/13 12:58:37;;;;;;;;;;;;;;;-2.53;74.62;95426.25;5093759;28;19951;-73
2022/12/13 13:01:03;;;;;;;;;;;;;;;-2.53;73.80;95420.31;5117130;28;19957;-73
2022/12/13 13:03:32;;;;;;;;;;;;;;;-2.50;75.13;95443.91;5093784;28;20398;-73